This demonstration page uses our WeatherBlox Daily Observations layout. Learn more.

Hourly Observations for July 29, 2017

Temp ( °F °C ) Dew Point ( °F °C ) Humidity (%) Winds ( mph kmh ) Pressure ( in mb ) Visibility ( mi km ) Precip ( " mm )
12:54 am 00:54 Clear 69 20.6 65 18.3 87 87 N 5 7 30.03 1017 10 16.0934 0 0
1:54 am 01:54 Clear 68 20 65 18.3 90 90 N 3 6 30.02 1017 10 16.0934 0 0
2:54 am 02:54 Clear 67 19.4 64 17.8 91 91 Calm 30.02 1017 10 16.0934 0 0
3:54 am 03:54 Clear 68 20 64 17.8 87 87 N 3 6 30.03 1017 10 16.0934 0 0
4:54 am 04:54 Clear 66 18.9 63 17.2 90 90 Calm 30.04 1017 10 16.0934 0 0
5:54 am 05:54 Clear 65 18.3 62 16.7 90 90 N 3 6 30.05 1018 10 16.0934 0 0
6:54 am 06:54 Sunny 66 18.9 63 17.2 90 90 Calm 30.07 1018 9 14.48406 0 0
7:54 am 07:54 Sunny 70 21.1 66 18.9 87 87 Calm 30.09 1019 10 16.0934 0 0
8:54 am 08:54 Sunny 74 23.3 67 19.4 79 79 Calm 30.1 1019 10 16.0934 0 0
9:54 am 09:54 Sunny 77 25 67 19.4 71 71 S 10 17 30.1 1019 10 16.0934 0 0
10:54 am 10:54 Cloudy 79 26.1 65 18.3 62 62 SSE 8 13 30.1 1019 10 16.0934 0 0
11:54 am 11:54 Cloudy 80 26.7 64 17.8 58 58 S 7 11 30.1 1019 10 16.0934 0 0
12:54 pm 12:54 Partly Cloudy 80 26.7 63 17.2 56 56 S 7 11 30.1 1019 10 16.0934 0 0
1:54 pm 13:54 Mostly Sunny 83 28.3 64 17.8 53 53 SE 5 7 30.09 1019 10 16.0934 0 0
2:54 pm 14:54 Cloudy 81 27.2 64 17.8 57 57 SSE 9 15 30.09 1019 10 16.0934 0 0
3:54 pm 15:54 Cloudy 80 26.7 65 18.3 60 60 ESE 9 15 30.09 1019 10 16.0934 0 0
4:54 pm 16:54 Cloudy 81 27.2 64 17.8 57 57 SE 9 15 30.08 1019 10 16.0934 0 0
5:54 pm 17:54 Cloudy 81 27.2 64 17.8 57 57 SE 10 17 30.07 1018 10 16.0934 0 0
6:54 pm 18:54 Partly Cloudy 80 26.7 64 17.8 58 58 SE 8 13 30.06 1018 10 16.0934 0 0
7:54 pm 19:54 Sunny 79 26.1 64 17.8 60 60 ESE 10 17 30.07 1018 10 16.0934 0 0
8:54 pm 20:54 Mostly Clear 77 25 64 17.8 64 64 ESE 7 11 30.08 1019 10 16.0934 0 0
9:54 pm 21:54 Clear 74 23.3 64 17.8 71 71 SE 7 11 30.1 1019 10 16.0934 0 0
10:54 pm 22:54 Mostly Cloudy 74 23.3 64 17.8 71 71 ESE 5 7 30.12 1020 10 16.0934 0 0
11:54 pm 23:54 Cloudy 74 23.3 64 17.8 71 71 ESE 3 6 30.11 1020 10 16.0934 0 0

Powered by AerisWeather